Terminal Aerodrome Forecast
Issued by NWS Bismarck, ND

Home | Current Version | Previous Version | Text Only | Print | Product List | Glossary Off
Versions: 1 2 3 4 5 6 7 8 9 10 11 12 13

000
FTUS43 KBIS 281128
TAFISN
TAF
KISN 281128Z 2812/2912 17005KT P6SM BKN250
     FM281600 22010KT P6SM SCT120 SCT250
     FM281800 25012KT P6SM SCT250
     FM282100 28014KT P6SM SCT250
     FM290100 31012KT P6SM SCT100 BKN250
     FM290400 34010KT P6SM SCT080 SCT100 BKN250=

USA.gov is the U.S. government's official web portal to all federal, state and local government web resources and services.